sensor_id;sensor_type;location;lat;lon;timestamp;P1;durP1;ratioP1;P2;durP2;ratioP2
68989;SDS011;56046;47.270;11.368;2023-03-05T00:02:18;30.00;;;13.40;;
68989;SDS011;56046;47.270;11.368;2023-03-05T00:04:44;32.17;;;13.53;;
68989;SDS011;56046;47.270;11.368;2023-03-05T00:07:09;35.57;;;13.27;;
68989;SDS011;56046;47.270;11.368;2023-03-05T00:09:36;35.77;;;14.10;;
68989;SDS011;56046;47.270;11.368;2023-03-05T00:12:01;35.28;;;13.93;;
68989;SDS011;56046;47.270;11.368;2023-03-05T00:14:27;35.17;;;12.73;;
68989;SDS011;56046;47.270;11.368;2023-03-05T00:16:52;36.17;;;13.97;;
68989;SDS011;56046;47.270;11.368;2023-03-05T00:19:17;32.50;;;12.93;;
68989;SDS011;56046;47.270;11.368;2023-03-05T00:21:43;33.07;;;13.07;;
68989;SDS011;56046;47.270;11.368;2023-03-05T00:24:12;29.97;;;13.20;;
68989;SDS011;56046;47.270;11.368;2023-03-05T00:26:38;30.23;;;12.23;;
68989;SDS011;56046;47.270;11.368;2023-03-05T00:29:04;30.73;;;13.20;;
68989;SDS011;56046;47.270;11.368;2023-03-05T00:31:30;30.60;;;12.55;;
68989;SDS011;56046;47.270;11.368;2023-03-05T00:33:59;32.13;;;14.00;;
68989;SDS011;56046;47.270;11.368;2023-03-05T00:36:25;32.97;;;13.23;;
68989;SDS011;56046;47.270;11.368;2023-03-05T00:38:51;31.30;;;12.90;;
68989;SDS011;56046;47.270;11.368;2023-03-05T00:41:16;32.42;;;12.73;;
68989;SDS011;56046;47.270;11.368;2023-03-05T00:43:42;32.78;;;13.25;;
68989;SDS011;56046;47.270;11.368;2023-03-05T00:46:07;32.23;;;12.80;;
68989;SDS011;56046;47.270;11.368;2023-03-05T00:48:32;30.57;;;12.63;;
68989;SDS011;56046;47.270;11.368;2023-03-05T00:50:57;32.93;;;12.93;;
68989;SDS011;56046;47.270;11.368;2023-03-05T00:53:23;34.23;;;13.23;;
68989;SDS011;56046;47.270;11.368;2023-03-05T00:55:48;34.60;;;14.07;;
68989;SDS011;56046;47.270;11.368;2023-03-05T00:58:13;30.20;;;12.10;;
68989;SDS011;56046;47.270;11.368;2023-03-05T01:00:39;34.13;;;12.90;;
68989;SDS011;56046;47.270;11.368;2023-03-05T01:03:04;34.28;;;12.95;;
68989;SDS011;56046;47.270;11.368;2023-03-05T01:05:30;32.45;;;13.68;;
68989;SDS011;56046;47.270;11.368;2023-03-05T01:07:55;34.85;;;13.60;;
68989;SDS011;56046;47.270;11.368;2023-03-05T01:10:21;34.47;;;12.47;;
68989;SDS011;56046;47.270;11.368;2023-03-05T01:12:47;31.93;;;13.40;;
68989;SDS011;56046;47.270;11.368;2023-03-05T01:15:12;35.97;;;13.65;;
68989;SDS011;56046;47.270;11.368;2023-03-05T01:17:38;30.67;;;13.07;;
68989;SDS011;56046;47.270;11.368;2023-03-05T01:20:03;34.67;;;13.70;;
68989;SDS011;56046;47.270;11.368;2023-03-05T01:22:29;31.90;;;13.37;;
68989;SDS011;56046;47.270;11.368;2023-03-05T01:24:55;30.30;;;13.15;;
68989;SDS011;56046;47.270;11.368;2023-03-05T01:27:20;34.00;;;12.13;;
68989;SDS011;56046;47.270;11.368;2023-03-05T01:29:45;32.93;;;13.50;;
68989;SDS011;56046;47.270;11.368;2023-03-05T01:32:11;31.77;;;13.13;;
68989;SDS011;56046;47.270;11.368;2023-03-05T01:34:36;36.17;;;14.03;;
68989;SDS011;56046;47.270;11.368;2023-03-05T01:37:01;34.80;;;12.87;;
68989;SDS011;56046;47.270;11.368;2023-03-05T01:39:27;35.00;;;14.07;;
68989;SDS011;56046;47.270;11.368;2023-03-05T01:41:52;31.27;;;13.00;;
68989;SDS011;56046;47.270;11.368;2023-03-05T01:44:21;37.13;;;13.57;;
68989;SDS011;56046;47.270;11.368;2023-03-05T01:46:47;36.20;;;13.82;;
68989;SDS011;56046;47.270;11.368;2023-03-05T01:49:17;35.30;;;14.80;;
68989;SDS011;56046;47.270;11.368;2023-03-05T01:54:09;37.37;;;13.90;;
68989;SDS011;56046;47.270;11.368;2023-03-05T01:56:35;35.10;;;14.32;;
68989;SDS011;56046;47.270;11.368;2023-03-05T01:59:02;33.60;;;13.75;;
68989;SDS011;56046;47.270;11.368;2023-03-05T02:01:29;33.87;;;13.40;;
68989;SDS011;56046;47.270;11.368;2023-03-05T02:03:55;30.92;;;12.98;;
68989;SDS011;56046;47.270;11.368;2023-03-05T02:06:20;35.93;;;12.90;;
68989;SDS011;56046;47.270;11.368;2023-03-05T02:08:45;38.93;;;14.17;;
68989;SDS011;56046;47.270;11.368;2023-03-05T02:11:11;39.00;;;13.70;;
68989;SDS011;56046;47.270;11.368;2023-03-05T02:13:36;33.77;;;13.87;;
68989;SDS011;56046;47.270;11.368;2023-03-05T02:16:05;33.63;;;13.10;;
68989;SDS011;56046;47.270;11.368;2023-03-05T02:18:30;31.97;;;12.30;;
68989;SDS011;56046;47.270;11.368;2023-03-05T02:23:22;40.03;;;14.97;;
68989;SDS011;56046;47.270;11.368;2023-03-05T02:25:47;35.83;;;13.33;;
68989;SDS011;56046;47.270;11.368;2023-03-05T02:30:41;36.60;;;12.93;;
68989;SDS011;56046;47.270;11.368;2023-03-05T02:33:06;32.40;;;12.38;;
68989;SDS011;56046;47.270;11.368;2023-03-05T02:35:32;37.33;;;13.40;;
68989;SDS011;56046;47.270;11.368;2023-03-05T02:37:57;35.40;;;13.43;;
68989;SDS011;56046;47.270;11.368;2023-03-05T02:40:23;32.03;;;13.03;;
68989;SDS011;56046;47.270;11.368;2023-03-05T02:42:48;40.08;;;14.32;;
68989;SDS011;56046;47.270;11.368;2023-03-05T02:45:14;37.13;;;14.87;;
68989;SDS011;56046;47.270;11.368;2023-03-05T02:47:39;34.70;;;13.60;;
68989;SDS011;56046;47.270;11.368;2023-03-05T02:50:05;33.92;;;13.73;;
68989;SDS011;56046;47.270;11.368;2023-03-05T02:52:31;35.87;;;13.30;;
68989;SDS011;56046;47.270;11.368;2023-03-05T02:54:56;38.53;;;13.75;;
68989;SDS011;56046;47.270;11.368;2023-03-05T02:57:21;35.00;;;13.50;;
68989;SDS011;56046;47.270;11.368;2023-03-05T02:59:47;37.53;;;14.27;;
68989;SDS011;56046;47.270;11.368;2023-03-05T03:02:12;37.33;;;14.33;;
68989;SDS011;56046;47.270;11.368;2023-03-05T03:04:37;37.90;;;14.30;;
68989;SDS011;56046;47.270;11.368;2023-03-05T03:07:03;34.47;;;13.10;;
68989;SDS011;56046;47.270;11.368;2023-03-05T03:09:28;32.67;;;12.87;;
68989;SDS011;56046;47.270;11.368;2023-03-05T03:11:53;36.83;;;13.98;;
68989;SDS011;56046;47.270;11.368;2023-03-05T03:14:19;39.63;;;14.38;;
68989;SDS011;56046;47.270;11.368;2023-03-05T03:16:44;36.30;;;13.87;;
68989;SDS011;56046;47.270;11.368;2023-03-05T03:19:10;42.43;;;13.70;;
68989;SDS011;56046;47.270;11.368;2023-03-05T03:21:35;32.57;;;14.37;;
68989;SDS011;56046;47.270;11.368;2023-03-05T03:24:00;34.97;;;13.57;;
68989;SDS011;56046;47.270;11.368;2023-03-05T03:26:25;34.93;;;13.93;;
68989;SDS011;56046;47.270;11.368;2023-03-05T03:28:51;36.70;;;14.00;;
68989;SDS011;56046;47.270;11.368;2023-03-05T03:31:16;33.80;;;14.53;;
68989;SDS011;56046;47.270;11.368;2023-03-05T03:33:42;39.53;;;14.48;;
68989;SDS011;56046;47.270;11.368;2023-03-05T03:36:07;35.67;;;13.50;;
68989;SDS011;56046;47.270;11.368;2023-03-05T03:38:33;34.10;;;13.53;;
68989;SDS011;56046;47.270;11.368;2023-03-05T03:40:58;36.33;;;14.27;;
68989;SDS011;56046;47.270;11.368;2023-03-05T03:43:23;40.03;;;14.27;;
68989;SDS011;56046;47.270;11.368;2023-03-05T03:45:49;38.13;;;14.57;;
68989;SDS011;56046;47.270;11.368;2023-03-05T03:48:14;36.58;;;14.57;;
68989;SDS011;56046;47.270;11.368;2023-03-05T03:50:39;34.53;;;13.73;;
68989;SDS011;56046;47.270;11.368;2023-03-05T03:53:05;38.88;;;13.95;;
68989;SDS011;56046;47.270;11.368;2023-03-05T03:55:30;35.67;;;14.53;;
68989;SDS011;56046;47.270;11.368;2023-03-05T03:57:56;38.45;;;14.68;;
68989;SDS011;56046;47.270;11.368;2023-03-05T04:00:21;41.17;;;14.73;;
68989;SDS011;56046;47.270;11.368;2023-03-05T04:02:46;41.50;;;15.13;;
68989;SDS011;56046;47.270;11.368;2023-03-05T04:05:12;39.23;;;15.37;;
68989;SDS011;56046;47.270;11.368;2023-03-05T04:07:37;38.87;;;15.50;;
68989;SDS011;56046;47.270;11.368;2023-03-05T04:10:02;39.93;;;14.50;;
68989;SDS011;56046;47.270;11.368;2023-03-05T04:12:28;37.60;;;14.57;;
68989;SDS011;56046;47.270;11.368;2023-03-05T04:14:53;38.87;;;15.03;;
68989;SDS011;56046;47.270;11.368;2023-03-05T04:17:18;38.10;;;14.40;;
68989;SDS011;56046;47.270;11.368;2023-03-05T04:19:44;37.07;;;14.00;;
68989;SDS011;56046;47.270;11.368;2023-03-05T04:22:13;37.03;;;14.77;;
68989;SDS011;56046;47.270;11.368;2023-03-05T04:24:39;37.47;;;14.27;;
68989;SDS011;56046;47.270;11.368;2023-03-05T04:27:05;35.50;;;13.98;;
68989;SDS011;56046;47.270;11.368;2023-03-05T04:29:31;39.87;;;14.77;;
68989;SDS011;56046;47.270;11.368;2023-03-05T04:31:56;40.73;;;15.23;;
68989;SDS011;56046;47.270;11.368;2023-03-05T04:34:21;45.92;;;16.70;;
68989;SDS011;56046;47.270;11.368;2023-03-05T04:36:46;41.78;;;16.20;;
68989;SDS011;56046;47.270;11.368;2023-03-05T04:39:12;41.30;;;15.60;;
68989;SDS011;56046;47.270;11.368;2023-03-05T04:41:37;41.80;;;15.73;;
68989;SDS011;56046;47.270;11.368;2023-03-05T04:44:02;41.57;;;15.87;;
68989;SDS011;56046;47.270;11.368;2023-03-05T04:46:28;34.70;;;15.23;;
68989;SDS011;56046;47.270;11.368;2023-03-05T04:48:53;36.17;;;15.13;;
68989;SDS011;56046;47.270;11.368;2023-03-05T04:51:19;38.93;;;16.03;;
68989;SDS011;56046;47.270;11.368;2023-03-05T04:53:44;38.83;;;15.70;;
68989;SDS011;56046;47.270;11.368;2023-03-05T04:56:09;39.40;;;15.10;;
68989;SDS011;56046;47.270;11.368;2023-03-05T04:58:35;37.63;;;14.63;;
68989;SDS011;56046;47.270;11.368;2023-03-05T05:01:03;36.97;;;14.17;;
68989;SDS011;56046;47.270;11.368;2023-03-05T05:03:29;38.67;;;14.55;;
68989;SDS011;56046;47.270;11.368;2023-03-05T05:05:55;38.30;;;14.23;;
68989;SDS011;56046;47.270;11.368;2023-03-05T05:08:20;39.83;;;14.38;;
68989;SDS011;56046;47.270;11.368;2023-03-05T05:10:53;34.75;;;14.15;;
68989;SDS011;56046;47.270;11.368;2023-03-05T05:13:18;34.37;;;14.30;;
68989;SDS011;56046;47.270;11.368;2023-03-05T05:15:44;38.90;;;14.77;;
68989;SDS011;56046;47.270;11.368;2023-03-05T05:18:09;34.33;;;14.30;;
68989;SDS011;56046;47.270;11.368;2023-03-05T05:20:34;35.27;;;13.90;;
68989;SDS011;56046;47.270;11.368;2023-03-05T05:22:59;35.65;;;14.18;;
68989;SDS011;56046;47.270;11.368;2023-03-05T05:25:25;37.22;;;14.75;;
68989;SDS011;56046;47.270;11.368;2023-03-05T05:27:50;36.60;;;14.88;;
68989;SDS011;56046;47.270;11.368;2023-03-05T05:30:15;39.08;;;14.80;;
68989;SDS011;56046;47.270;11.368;2023-03-05T05:32:40;37.30;;;15.27;;
68989;SDS011;56046;47.270;11.368;2023-03-05T05:35:06;35.70;;;13.75;;
68989;SDS011;56046;47.270;11.368;2023-03-05T05:37:31;36.58;;;14.27;;
68989;SDS011;56046;47.270;11.368;2023-03-05T05:39:56;32.93;;;13.00;;
68989;SDS011;56046;47.270;11.368;2023-03-05T05:42:22;33.97;;;13.13;;
68989;SDS011;56046;47.270;11.368;2023-03-05T05:44:48;33.20;;;14.00;;
68989;SDS011;56046;47.270;11.368;2023-03-05T05:47:14;36.43;;;14.87;;
68989;SDS011;56046;47.270;11.368;2023-03-05T05:49:40;33.40;;;13.88;;
68989;SDS011;56046;47.270;11.368;2023-03-05T05:52:05;37.77;;;14.47;;
68989;SDS011;56046;47.270;11.368;2023-03-05T05:54:30;37.13;;;13.67;;
68989;SDS011;56046;47.270;11.368;2023-03-05T05:56:56;37.37;;;13.07;;
68989;SDS011;56046;47.270;11.368;2023-03-05T05:59:21;38.37;;;14.40;;
68989;SDS011;56046;47.270;11.368;2023-03-05T06:01:47;36.85;;;13.75;;
68989;SDS011;56046;47.270;11.368;2023-03-05T06:04:12;43.47;;;15.67;;
68989;SDS011;56046;47.270;11.368;2023-03-05T06:06:37;37.27;;;14.37;;
68989;SDS011;56046;47.270;11.368;2023-03-05T06:09:02;37.03;;;13.60;;
68989;SDS011;56046;47.270;11.368;2023-03-05T06:11:28;40.80;;;14.50;;
68989;SDS011;56046;47.270;11.368;2023-03-05T06:13:53;36.43;;;14.23;;
68989;SDS011;56046;47.270;11.368;2023-03-05T06:16:19;39.33;;;15.30;;
68989;SDS011;56046;47.270;11.368;2023-03-05T06:18:45;39.75;;;15.07;;
68989;SDS011;56046;47.270;11.368;2023-03-05T06:21:12;37.97;;;14.97;;
68989;SDS011;56046;47.270;11.368;2023-03-05T06:23:37;39.88;;;14.63;;
68989;SDS011;56046;47.270;11.368;2023-03-05T06:26:03;38.80;;;14.00;;
68989;SDS011;56046;47.270;11.368;2023-03-05T06:28:29;40.67;;;15.38;;
68989;SDS011;56046;47.270;11.368;2023-03-05T06:31:08;37.97;;;15.37;;
68989;SDS011;56046;47.270;11.368;2023-03-05T06:33:34;35.45;;;14.45;;
68989;SDS011;56046;47.270;11.368;2023-03-05T06:36:02;41.47;;;14.38;;
68989;SDS011;56046;47.270;11.368;2023-03-05T06:38:27;42.50;;;15.23;;
68989;SDS011;56046;47.270;11.368;2023-03-05T06:40:52;40.20;;;15.03;;
68989;SDS011;56046;47.270;11.368;2023-03-05T06:43:17;38.23;;;14.17;;
68989;SDS011;56046;47.270;11.368;2023-03-05T06:45:43;42.17;;;15.68;;
68989;SDS011;56046;47.270;11.368;2023-03-05T06:48:08;37.40;;;14.67;;
68989;SDS011;56046;47.270;11.368;2023-03-05T06:50:34;36.17;;;14.50;;
68989;SDS011;56046;47.270;11.368;2023-03-05T06:52:59;44.13;;;15.30;;
68989;SDS011;56046;47.270;11.368;2023-03-05T06:55:24;37.33;;;15.33;;
68989;SDS011;56046;47.270;11.368;2023-03-05T06:57:50;37.97;;;15.33;;
68989;SDS011;56046;47.270;11.368;2023-03-05T07:00:15;38.55;;;15.73;;
68989;SDS011;56046;47.270;11.368;2023-03-05T07:02:40;37.63;;;14.98;;
68989;SDS011;56046;47.270;11.368;2023-03-05T07:05:06;39.63;;;14.60;;
68989;SDS011;56046;47.270;11.368;2023-03-05T07:07:32;39.17;;;15.93;;
68989;SDS011;56046;47.270;11.368;2023-03-05T07:09:57;35.13;;;15.32;;
68989;SDS011;56046;47.270;11.368;2023-03-05T07:12:23;35.27;;;14.73;;
68989;SDS011;56046;47.270;11.368;2023-03-05T07:14:48;38.90;;;15.53;;
68989;SDS011;56046;47.270;11.368;2023-03-05T07:17:13;38.40;;;15.00;;
68989;SDS011;56046;47.270;11.368;2023-03-05T07:19:39;35.15;;;15.00;;
68989;SDS011;56046;47.270;11.368;2023-03-05T07:22:05;37.87;;;15.03;;
68989;SDS011;56046;47.270;11.368;2023-03-05T07:24:31;33.75;;;14.93;;
68989;SDS011;56046;47.270;11.368;2023-03-05T07:26:56;40.37;;;15.57;;
68989;SDS011;56046;47.270;11.368;2023-03-05T07:29:22;40.20;;;16.53;;
68989;SDS011;56046;47.270;11.368;2023-03-05T07:31:47;44.15;;;16.10;;
68989;SDS011;56046;47.270;11.368;2023-03-05T07:34:13;38.07;;;15.77;;
68989;SDS011;56046;47.270;11.368;2023-03-05T07:36:38;35.50;;;14.77;;
68989;SDS011;56046;47.270;11.368;2023-03-05T07:39:04;37.88;;;15.50;;
68989;SDS011;56046;47.270;11.368;2023-03-05T07:41:30;37.88;;;16.38;;
68989;SDS011;56046;47.270;11.368;2023-03-05T07:43:55;37.50;;;16.00;;
68989;SDS011;56046;47.270;11.368;2023-03-05T07:46:22;39.80;;;17.03;;
68989;SDS011;56046;47.270;11.368;2023-03-05T07:48:48;38.90;;;16.15;;
68989;SDS011;56046;47.270;11.368;2023-03-05T07:51:15;39.50;;;16.03;;
68989;SDS011;56046;47.270;11.368;2023-03-05T07:53:41;37.10;;;15.13;;
68989;SDS011;56046;47.270;11.368;2023-03-05T07:56:07;39.83;;;15.93;;
68989;SDS011;56046;47.270;11.368;2023-03-05T07:58:32;42.70;;;15.67;;
68989;SDS011;56046;47.270;11.368;2023-03-05T08:00:57;37.43;;;15.53;;
68989;SDS011;56046;47.270;11.368;2023-03-05T08:03:23;38.63;;;15.07;;
68989;SDS011;56046;47.270;11.368;2023-03-05T08:05:48;35.13;;;15.97;;
68989;SDS011;56046;47.270;11.368;2023-03-05T08:08:13;35.23;;;15.00;;
68989;SDS011;56046;47.270;11.368;2023-03-05T08:10:38;35.03;;;15.97;;
68989;SDS011;56046;47.270;11.368;2023-03-05T08:13:04;33.38;;;15.43;;
68989;SDS011;56046;47.270;11.368;2023-03-05T08:15:29;38.70;;;14.93;;
68989;SDS011;56046;47.270;11.368;2023-03-05T08:17:55;35.47;;;15.32;;
68989;SDS011;56046;47.270;11.368;2023-03-05T08:20:21;35.80;;;15.47;;
68989;SDS011;56046;47.270;11.368;2023-03-05T08:22:46;35.03;;;15.60;;
68989;SDS011;56046;47.270;11.368;2023-03-05T08:25:11;38.90;;;16.03;;
68989;SDS011;56046;47.270;11.368;2023-03-05T08:27:38;37.03;;;15.83;;
68989;SDS011;56046;47.270;11.368;2023-03-05T08:30:03;37.42;;;15.90;;
68989;SDS011;56046;47.270;11.368;2023-03-05T08:32:29;34.33;;;15.87;;
68989;SDS011;56046;47.270;11.368;2023-03-05T08:34:55;37.53;;;15.97;;
68989;SDS011;56046;47.270;11.368;2023-03-05T08:37:21;41.53;;;15.45;;
68989;SDS011;56046;47.270;11.368;2023-03-05T08:39:47;34.77;;;15.90;;
68989;SDS011;56046;47.270;11.368;2023-03-05T08:42:12;34.53;;;16.27;;
68989;SDS011;56046;47.270;11.368;2023-03-05T08:44:37;33.13;;;15.10;;
68989;SDS011;56046;47.270;11.368;2023-03-05T08:47:02;36.40;;;15.10;;
68989;SDS011;56046;47.270;11.368;2023-03-05T08:49:28;34.28;;;15.60;;
68989;SDS011;56046;47.270;11.368;2023-03-05T08:51:53;36.40;;;15.73;;
68989;SDS011;56046;47.270;11.368;2023-03-05T08:54:18;34.70;;;15.03;;
68989;SDS011;56046;47.270;11.368;2023-03-05T08:56:44;33.10;;;15.90;;
68989;SDS011;56046;47.270;11.368;2023-03-05T08:59:10;36.85;;;15.88;;
68989;SDS011;56046;47.270;11.368;2023-03-05T09:01:35;35.20;;;15.40;;
68989;SDS011;56046;47.270;11.368;2023-03-05T09:04:01;34.73;;;16.40;;
68989;SDS011;56046;47.270;11.368;2023-03-05T09:06:27;31.73;;;15.30;;
68989;SDS011;56046;47.270;11.368;2023-03-05T09:08:53;32.03;;;15.00;;
68989;SDS011;56046;47.270;11.368;2023-03-05T09:11:19;30.83;;;15.43;;
68989;SDS011;56046;47.270;11.368;2023-03-05T09:13:44;31.35;;;14.90;;
68989;SDS011;56046;47.270;11.368;2023-03-05T09:16:11;29.60;;;14.43;;
68989;SDS011;56046;47.270;11.368;2023-03-05T09:18:36;32.35;;;15.05;;
68989;SDS011;56046;47.270;11.368;2023-03-05T09:21:04;33.90;;;15.17;;
68989;SDS011;56046;47.270;11.368;2023-03-05T09:23:30;29.52;;;14.32;;
68989;SDS011;56046;47.270;11.368;2023-03-05T09:25:55;29.10;;;14.67;;
68989;SDS011;56046;47.270;11.368;2023-03-05T09:28:20;28.13;;;14.13;;
68989;SDS011;56046;47.270;11.368;2023-03-05T09:30:45;28.17;;;13.37;;
68989;SDS011;56046;47.270;11.368;2023-03-05T09:33:11;31.70;;;15.00;;
68989;SDS011;56046;47.270;11.368;2023-03-05T09:35:37;28.83;;;14.43;;
68989;SDS011;56046;47.270;11.368;2023-03-05T09:38:02;28.10;;;13.33;;
68989;SDS011;56046;47.270;11.368;2023-03-05T09:40:32;26.17;;;13.98;;
68989;SDS011;56046;47.270;11.368;2023-03-05T09:43:13;29.60;;;13.00;;
68989;SDS011;56046;47.270;11.368;2023-03-05T09:45:42;25.97;;;12.60;;
68989;SDS011;56046;47.270;11.368;2023-03-05T09:48:22;28.55;;;12.82;;
68989;SDS011;56046;47.270;11.368;2023-03-05T09:50:52;25.40;;;13.02;;
68989;SDS011;56046;47.270;11.368;2023-03-05T09:53:35;25.50;;;12.77;;
68989;SDS011;56046;47.270;11.368;2023-03-05T09:56:18;28.88;;;13.90;;
68989;SDS011;56046;47.270;11.368;2023-03-05T09:58:47;26.20;;;13.63;;
68989;SDS011;56046;47.270;11.368;2023-03-05T10:06:23;27.00;;;13.53;;
68989;SDS011;56046;47.270;11.368;2023-03-05T10:11:42;28.30;;;13.35;;
68989;SDS011;56046;47.270;11.368;2023-03-05T10:14:06;26.97;;;13.77;;
68989;SDS011;56046;47.270;11.368;2023-03-05T10:22:01;27.75;;;13.15;;
68989;SDS011;56046;47.270;11.368;2023-03-05T10:27:19;27.03;;;12.83;;
68989;SDS011;56046;47.270;11.368;2023-03-05T10:45:00;24.73;;;11.47;;
68989;SDS011;56046;47.270;11.368;2023-03-05T10:47:47;21.75;;;9.18;;
68989;SDS011;56046;47.270;11.368;2023-03-05T10:52:42;19.80;;;9.90;;
68989;SDS011;56046;47.270;11.368;2023-03-05T10:57:38;16.10;;;7.88;;
68989;SDS011;56046;47.270;11.368;2023-03-05T11:07:55;22.33;;;10.88;;
68989;SDS011;56046;47.270;11.368;2023-03-05T11:10:24;19.38;;;9.65;;
68989;SDS011;56046;47.270;11.368;2023-03-05T11:12:50;19.60;;;9.40;;
68989;SDS011;56046;47.270;11.368;2023-03-05T11:20:29;18.20;;;9.20;;
68989;SDS011;56046;47.270;11.368;2023-03-05T11:23:08;17.20;;;8.45;;
68989;SDS011;56046;47.270;11.368;2023-03-05T11:25:34;19.60;;;9.52;;
68989;SDS011;56046;47.270;11.368;2023-03-05T11:28:01;21.92;;;9.90;;
68989;SDS011;56046;47.270;11.368;2023-03-05T11:30:30;17.03;;;8.40;;
68989;SDS011;56046;47.270;11.368;2023-03-05T11:33:12;18.10;;;8.85;;
68989;SDS011;56046;47.270;11.368;2023-03-05T11:35:39;20.30;;;8.98;;
68989;SDS011;56046;47.270;11.368;2023-03-05T11:38:10;17.08;;;8.30;;
68989;SDS011;56046;47.270;11.368;2023-03-05T11:40:38;18.35;;;8.52;;
68989;SDS011;56046;47.270;11.368;2023-03-05T11:43:04;19.13;;;9.10;;
68989;SDS011;56046;47.270;11.368;2023-03-05T11:45:30;18.40;;;7.97;;
68989;SDS011;56046;47.270;11.368;2023-03-05T11:48:17;17.02;;;8.40;;
68989;SDS011;56046;47.270;11.368;2023-03-05T11:50:44;21.25;;;9.23;;
68989;SDS011;56046;47.270;11.368;2023-03-05T11:53:21;19.33;;;9.40;;
68989;SDS011;56046;47.270;11.368;2023-03-05T11:55:48;20.07;;;8.27;;
68989;SDS011;56046;47.270;11.368;2023-03-05T12:00:44;19.20;;;7.85;;
68989;SDS011;56046;47.270;11.368;2023-03-05T12:03:11;18.27;;;8.27;;
68989;SDS011;56046;47.270;11.368;2023-03-05T12:05:42;20.13;;;8.93;;
68989;SDS011;56046;47.270;11.368;2023-03-05T12:08:10;17.87;;;8.60;;
68989;SDS011;56046;47.270;11.368;2023-03-05T12:10:37;17.80;;;8.00;;
68989;SDS011;56046;47.270;11.368;2023-03-05T12:13:11;17.37;;;7.67;;
68989;SDS011;56046;47.270;11.368;2023-03-05T12:18:19;17.20;;;8.23;;
68989;SDS011;56046;47.270;11.368;2023-03-05T12:20:54;17.45;;;7.88;;
68989;SDS011;56046;47.270;11.368;2023-03-05T12:23:21;17.05;;;7.95;;
68989;SDS011;56046;47.270;11.368;2023-03-05T12:28:13;18.77;;;7.45;;
68989;SDS011;56046;47.270;11.368;2023-03-05T12:33:05;18.73;;;7.70;;
68989;SDS011;56046;47.270;11.368;2023-03-05T12:35:50;16.67;;;7.63;;
68989;SDS011;56046;47.270;11.368;2023-03-05T12:38:17;16.93;;;7.80;;
68989;SDS011;56046;47.270;11.368;2023-03-05T12:40:42;15.30;;;7.80;;
68989;SDS011;56046;47.270;11.368;2023-03-05T12:43:30;18.03;;;7.97;;
68989;SDS011;56046;47.270;11.368;2023-03-05T12:48:40;19.15;;;8.43;;
68989;SDS011;56046;47.270;11.368;2023-03-05T12:51:10;19.85;;;8.98;;
68989;SDS011;56046;47.270;11.368;2023-03-05T12:53:35;19.17;;;8.13;;
68989;SDS011;56046;47.270;11.368;2023-03-05T12:56:05;19.63;;;8.40;;
68989;SDS011;56046;47.270;11.368;2023-03-05T13:03:31;19.77;;;7.55;;
68989;SDS011;56046;47.270;11.368;2023-03-05T13:05:58;19.92;;;8.90;;
68989;SDS011;56046;47.270;11.368;2023-03-05T13:08:32;18.83;;;8.70;;
68989;SDS011;56046;47.270;11.368;2023-03-05T13:13:32;19.48;;;9.40;;
68989;SDS011;56046;47.270;11.368;2023-03-05T13:15:59;21.92;;;9.68;;
68989;SDS011;56046;47.270;11.368;2023-03-05T13:23:34;18.65;;;9.05;;
68989;SDS011;56046;47.270;11.368;2023-03-05T13:26:00;22.02;;;8.85;;
68989;SDS011;56046;47.270;11.368;2023-03-05T13:28:27;20.23;;;8.48;;
68989;SDS011;56046;47.270;11.368;2023-03-05T13:30:53;18.20;;;8.77;;
68989;SDS011;56046;47.270;11.368;2023-03-05T13:33:28;21.73;;;8.95;;
68989;SDS011;56046;47.270;11.368;2023-03-05T13:35:54;18.48;;;9.15;;
68989;SDS011;56046;47.270;11.368;2023-03-05T13:38:21;20.60;;;9.70;;
68989;SDS011;56046;47.270;11.368;2023-03-05T13:40:59;20.67;;;8.50;;
68989;SDS011;56046;47.270;11.368;2023-03-05T13:43:25;22.30;;;9.00;;
68989;SDS011;56046;47.270;11.368;2023-03-05T13:45:54;19.40;;;8.82;;
68989;SDS011;56046;47.270;11.368;2023-03-05T13:48:20;18.93;;;9.17;;
68989;SDS011;56046;47.270;11.368;2023-03-05T13:50:46;17.85;;;8.52;;
68989;SDS011;56046;47.270;11.368;2023-03-05T13:53:24;18.02;;;8.35;;
68989;SDS011;56046;47.270;11.368;2023-03-05T13:55:51;17.77;;;8.40;;
68989;SDS011;56046;47.270;11.368;2023-03-05T14:01:03;14.95;;;7.05;;
68989;SDS011;56046;47.270;11.368;2023-03-05T14:03:29;19.92;;;8.05;;
68989;SDS011;56046;47.270;11.368;2023-03-05T14:05:55;18.08;;;8.63;;
68989;SDS011;56046;47.270;11.368;2023-03-05T14:08:21;20.67;;;9.40;;
68989;SDS011;56046;47.270;11.368;2023-03-05T14:10:52;18.92;;;7.85;;
68989;SDS011;56046;47.270;11.368;2023-03-05T14:13:21;16.60;;;7.67;;
68989;SDS011;56046;47.270;11.368;2023-03-05T14:16:04;18.42;;;7.95;;
68989;SDS011;56046;47.270;11.368;2023-03-05T14:18:30;16.60;;;7.35;;
68989;SDS011;56046;47.270;11.368;2023-03-05T14:21:08;17.30;;;7.27;;
68989;SDS011;56046;47.270;11.368;2023-03-05T14:23:42;17.25;;;7.70;;
68989;SDS011;56046;47.270;11.368;2023-03-05T14:28:53;15.93;;;6.93;;
68989;SDS011;56046;47.270;11.368;2023-03-05T14:31:19;18.30;;;6.88;;
68989;SDS011;56046;47.270;11.368;2023-03-05T14:33:48;16.10;;;6.97;;
68989;SDS011;56046;47.270;11.368;2023-03-05T14:36:19;19.58;;;7.20;;
68989;SDS011;56046;47.270;11.368;2023-03-05T14:38:44;19.85;;;7.88;;
68989;SDS011;56046;47.270;11.368;2023-03-05T14:43:54;17.90;;;7.57;;
68989;SDS011;56046;47.270;11.368;2023-03-05T14:46:20;17.25;;;7.45;;
68989;SDS011;56046;47.270;11.368;2023-03-05T14:48:46;13.52;;;6.28;;
68989;SDS011;56046;47.270;11.368;2023-03-05T14:51:12;16.27;;;6.87;;
68989;SDS011;56046;47.270;11.368;2023-03-05T14:53:39;17.88;;;6.65;;
68989;SDS011;56046;47.270;11.368;2023-03-05T14:56:14;19.45;;;7.00;;
68989;SDS011;56046;47.270;11.368;2023-03-05T14:58:41;15.23;;;6.50;;
68989;SDS011;56046;47.270;11.368;2023-03-05T15:01:08;15.33;;;5.77;;
68989;SDS011;56046;47.270;11.368;2023-03-05T15:03:35;20.60;;;7.93;;
68989;SDS011;56046;47.270;11.368;2023-03-05T15:06:02;13.93;;;6.28;;
68989;SDS011;56046;47.270;11.368;2023-03-05T15:08:29;18.73;;;7.17;;
68989;SDS011;56046;47.270;11.368;2023-03-05T15:10:56;14.95;;;6.43;;
68989;SDS011;56046;47.270;11.368;2023-03-05T15:13:21;15.73;;;6.80;;
68989;SDS011;56046;47.270;11.368;2023-03-05T15:15:47;18.50;;;7.20;;
68989;SDS011;56046;47.270;11.368;2023-03-05T15:18:19;13.80;;;5.75;;
68989;SDS011;56046;47.270;11.368;2023-03-05T15:20:45;16.35;;;6.82;;
68989;SDS011;56046;47.270;11.368;2023-03-05T15:23:13;14.00;;;6.30;;
68989;SDS011;56046;47.270;11.368;2023-03-05T15:25:40;16.38;;;6.45;;
68989;SDS011;56046;47.270;11.368;2023-03-05T15:28:06;18.20;;;7.47;;
68989;SDS011;56046;47.270;11.368;2023-03-05T15:30:32;17.13;;;6.75;;
68989;SDS011;56046;47.270;11.368;2023-03-05T15:33:02;18.65;;;7.13;;
68989;SDS011;56046;47.270;11.368;2023-03-05T15:35:28;15.52;;;5.90;;
68989;SDS011;56046;47.270;11.368;2023-03-05T15:37:54;15.27;;;5.80;;
68989;SDS011;56046;47.270;11.368;2023-03-05T15:40:20;15.48;;;5.47;;
68989;SDS011;56046;47.270;11.368;2023-03-05T15:42:46;15.65;;;5.88;;